MAM weather

General Servando Canales International Airport
Matamoros, Tamaulipas, Mexico

Public forecast

Using degrees Celsius for public forecast. Weather courtesy of forecast.io.

Current aviation weather report (METAR) for General Servando Canales International Airport

Retrieved 2019/10/18 21:40 UTC (60 minutes ago):

MMMA 182140Z 09011KT 8SM BKN025CB 31/22 A2973 RMK 8/300

Aviation forecast (TAF) for General Servando Canales International Airport

Retrieved 2019/10/18 18:29 UTC (4 hours ago):

TAF MMMA 181722Z 1818/1918 06010KT P6SM SCT025 TEMPO 1818/1822 BKN025 FM190600 14010KT P6SM SCT015 FM191300 14010KT 5SM HZ BKN015